Time;durP1;ratioP1;P1;durP2;ratioP2;P2;SDS_P1;SDS_P2;PMS_P1;PMS_P2;Temp;Humidity;BMP_temperature;BMP_pressure;BME280_temperature;BME280_humidity;BME280_pressure;Samples;Min_cycle;Max_cycle;Signal;HPM_P1;HPM_P2
2023/02/16 00:03:01;;;;;;;31.33;19.17;;;;;;;-0.30;74.37;98897.91;6346021;27;20326;-33
2023/02/16 00:06:03;;;;;;;32.67;18.83;;;;;;;-0.48;74.24;98870.84;6341221;27;20244;-34
2023/02/16 00:09:05;;;;;;;33.43;18.73;;;;;;;-0.28;74.47;98898.63;6340415;27;20313;-34
2023/02/16 00:15:39;;;;;;;35.73;20.10;;;;;;;-0.32;74.32;98886.78;6329555;27;20247;-34
2023/02/16 00:18:41;;;;;;;29.13;19.67;;;;;;;-0.34;74.39;98893.97;6330687;27;20707;-34
2023/02/16 00:21:43;;;;;;;34.40;19.73;;;;;;;-0.33;74.55;98890.38;6353063;27;20743;-34
2023/02/16 00:24:45;;;;;;;32.13;19.07;;;;;;;-0.30;74.71;98891.88;6327961;28;20716;-34
2023/02/16 00:27:47;;;;;;;37.33;20.60;;;;;;;-0.27;74.79;98887.19;6351458;27;20819;-34
2023/02/16 00:30:50;;;;;;;34.13;20.77;;;;;;;-0.20;74.52;98887.41;6333642;27;20236;-34
2023/02/16 00:33:53;;;;;;;30.97;17.70;;;;;;;-0.17;74.30;98887.13;6352478;27;20296;-34
2023/02/16 00:36:58;;;;;;;29.20;17.90;;;;;;;-0.17;74.40;98888.94;6353829;27;20247;-34
2023/02/16 00:39:59;;;;;;;33.90;20.93;;;;;;;-0.09;74.40;98891.69;6321022;28;20221;-34
2023/02/16 00:43:03;;;;;;;33.03;20.23;;;;;;;-0.06;74.70;98888.75;6333820;27;20602;-34
2023/02/16 00:46:05;;;;;;;39.57;22.23;;;;;;;-0.10;73.99;98884.75;6353960;27;20220;-34
2023/02/16 00:49:15;;;;;;;34.93;20.53;;;;;;;-0.16;73.73;98883.53;6334675;27;20782;-34
2023/02/16 00:52:41;;;;;;;34.47;20.50;;;;;;;-0.19;74.30;98877.78;6352736;27;20617;-34
2023/02/16 00:55:44;;;;;;;36.83;20.97;;;;;;;-0.20;73.79;98881.34;6301611;28;20776;-34
2023/02/16 00:58:50;;;;;;;36.43;20.43;;;;;;;-0.37;73.86;98865.44;6311720;28;20775;-34
2023/02/16 01:01:52;;;;;;;35.80;20.07;;;;;;;-0.23;74.20;98877.25;6331341;27;20232;-34
2023/02/16 01:04:55;;;;;;;33.57;20.63;;;;;;;-0.16;74.22;98874.88;6351113;27;20236;-34
2023/02/16 01:11:18;;;;;;;38.60;22.00;;;;;;;-0.05;73.98;98859.81;6338285;27;20384;-34
2023/02/16 01:14:20;;;;;;;34.90;19.83;;;;;;;-0.02;73.83;98863.91;6326186;28;20250;-34
2023/02/16 01:17:23;;;;;;;35.97;21.03;;;;;;;-0.02;74.06;98863.91;6316225;27;20370;-34
2023/02/16 01:20:27;;;;;;;34.37;19.87;;;;;;;-0.28;74.08;98811.41;6332731;27;20232;-34
2023/02/16 01:23:29;;;;;;;32.70;19.77;;;;;;;0.04;74.19;98852.84;6309374;28;20328;-34
2023/02/16 01:26:37;;;;;;;33.47;20.97;;;;;;;0.09;74.13;98852.41;6352082;27;20232;-34
2023/02/16 01:29:39;;;;;;;33.53;20.77;;;;;;;0.16;74.20;98848.25;6351334;28;20738;-34
2023/02/16 01:32:46;;;;;;;35.07;21.23;;;;;;;0.20;73.79;98850.44;6332355;28;20250;-34
2023/02/16 01:35:49;;;;;;;38.00;22.13;;;;;;;0.19;74.02;98840.91;6344083;28;20315;-34
2023/02/16 01:38:51;;;;;;;33.63;21.50;;;;;;;0.25;74.16;98837.72;6337929;28;20319;-34
2023/02/16 01:42:02;;;;;;;30.03;19.23;;;;;;;0.33;74.23;98846.63;6326565;28;20240;-34
2023/02/16 01:45:22;;;;;;;33.43;21.00;;;;;;;0.24;73.98;98822.13;6344156;28;20240;-34
2023/02/16 01:48:30;;;;;;;36.47;23.17;;;;;;;0.40;73.90;98831.97;6328306;28;20663;-34
2023/02/16 01:51:45;;;;;;;36.07;19.67;;;;;;;0.38;73.94;98833.91;6312389;28;20250;-34
2023/02/16 01:54:57;;;;;;;37.40;21.80;;;;;;;0.42;74.17;98827.41;6350543;28;20248;-34
2023/02/16 01:58:41;;;;;;;38.07;22.00;;;;;;;0.45;74.18;98820.06;6351964;28;20535;-34
2023/02/16 02:01:55;;;;;;;40.37;23.37;;;;;;;0.42;74.14;98809.03;6320517;28;20233;-34
2023/02/16 02:05:34;;;;;;;44.13;26.03;;;;;;;0.49;74.58;98821.41;6334064;28;20235;-34
2023/02/16 02:09:19;;;;;;;42.67;23.77;;;;;;;0.48;74.65;98816.31;6330747;28;20827;-34
2023/02/16 02:12:30;;;;;;;38.17;20.33;;;;;;;0.25;74.68;98782.69;6332609;28;20293;-34
2023/02/16 02:15:34;;;;;;;36.10;22.37;;;;;;;0.44;75.02;98820.19;6335106;28;20238;-34
2023/02/16 02:18:37;;;;;;;36.43;21.27;;;;;;;0.47;75.18;98831.22;6336739;28;20350;-34
2023/02/16 02:26:04;;;;;;;38.40;21.43;;;;;;;0.66;74.71;98817.13;6302755;28;20281;-34
2023/02/16 02:29:16;;;;;;;40.17;23.17;;;;;;;0.71;74.63;98819.31;6330619;27;20223;-34
2023/02/16 02:33:00;;;;;;;36.57;22.90;;;;;;;0.71;74.54;98809.63;6325221;28;20287;-34
2023/02/16 02:36:32;;;;;;;43.53;24.00;;;;;;;0.66;75.13;98818.94;6314123;27;20224;-34
2023/02/16 02:39:51;;;;;;;42.73;23.20;;;;;;;0.67;75.18;98815.34;6334560;27;20217;-34
2023/02/16 02:43:37;;;;;;;44.93;23.60;;;;;;;0.69;75.44;98819.47;6314372;27;20222;-34
2023/02/16 02:46:40;;;;;;;43.17;24.97;;;;;;;0.63;75.59;98817.44;6346990;27;20236;-34
2023/02/16 02:49:53;;;;;;;43.60;25.17;;;;;;;0.66;75.89;98805.81;6336413;27;20302;-34
2023/02/16 02:53:07;;;;;;;40.33;22.93;;;;;;;0.66;76.07;98818.94;6355164;27;20374;-34
2023/02/16 03:03:31;;;;;;;37.90;23.47;;;;;;;0.50;77.33;98817.00;6323024;28;20269;-34
2023/02/16 03:06:36;;;;;;;44.07;23.83;;;;;;;0.27;77.68;98800.06;6267673;28;20325;-34
2023/02/16 03:09:38;;;;;;;37.70;23.90;;;;;;;0.32;78.02;98816.16;6353436;27;20232;-34
2023/02/16 03:12:46;;;;;;;37.80;22.53;;;;;;;0.29;77.92;98826.94;6354965;27;20232;-34
2023/02/16 03:15:54;;;;;;;36.37;21.27;;;;;;;0.31;77.82;98819.75;6333113;27;20285;-34
2023/02/16 03:32:22;;;;;;;42.20;23.57;;;;;;;0.22;78.32;98814.41;6331596;27;20226;-34
2023/02/16 03:35:25;;;;;;;37.47;22.10;;;;;;;0.00;78.81;98801.75;6337156;27;20221;-34
2023/02/16 03:38:27;;;;;;;38.43;22.13;;;;;;;0.15;78.77;98802.91;6336460;27;20707;-34
2023/02/16 03:41:37;;;;;;;33.80;21.30;;;;;;;0.14;78.70;98809.09;6337911;27;20226;-34
2023/02/16 03:44:39;;;;;;;38.97;22.53;;;;;;;0.18;78.50;98809.63;6353545;27;20229;-34
2023/02/16 03:47:41;;;;;;;35.93;20.63;;;;;;;-0.02;78.58;98778.31;6352381;27;20619;-34
2023/02/16 03:50:42;;;;;;;33.73;20.70;;;;;;;0.15;78.90;98802.91;6335597;27;20716;-34
2023/02/16 03:53:44;;;;;;;34.13;20.13;;;;;;;0.14;78.52;98808.25;6347700;27;20719;-35
2023/02/16 03:56:46;;;;;;;36.33;20.60;;;;;;;0.17;78.83;98808.81;6354165;27;20224;-34
2023/02/16 03:59:49;;;;;;;32.43;20.60;;;;;;;0.19;78.68;98813.88;6332458;27;20719;-34
2023/02/16 04:02:51;;;;;;;36.00;21.80;;;;;;;0.12;78.53;98805.81;6318351;27;20242;-34
2023/02/16 04:05:55;;;;;;;34.23;20.60;;;;;;;-0.02;78.54;98796.63;6352070;27;20232;-34
2023/02/16 04:08:57;;;;;;;33.60;20.53;;;;;;;0.08;78.25;98808.84;6329077;27;20747;-34
2023/02/16 04:15:23;;;;;;;32.53;20.37;;;;;;;-0.11;78.09;98796.69;6289804;28;20218;-34
2023/02/16 04:18:25;;;;;;;32.10;19.30;;;;;;;-0.65;78.35;98722.44;6350325;27;20687;-34
2023/02/16 04:21:27;;;;;;;35.07;20.47;;;;;;;-0.44;78.43;98749.19;6352573;27;20776;-34
2023/02/16 04:24:29;;;;;;;31.90;20.53;;;;;;;-0.27;78.64;98795.53;6339505;27;20696;-34
2023/02/16 04:27:31;;;;;;;33.83;19.50;;;;;;;-0.25;78.92;98803.22;6339896;27;20224;-34
2023/02/16 04:30:33;;;;;;;34.63;21.43;;;;;;;-0.26;78.79;98805.03;6344050;27;20344;-34
2023/02/16 04:33:35;;;;;;;35.00;21.30;;;;;;;-0.35;78.75;98802.47;6342529;27;20223;-34
2023/02/16 04:36:37;;;;;;;38.57;21.10;;;;;;;-0.34;78.97;98802.34;6353350;27;20586;-34
2023/02/16 04:39:40;;;;;;;42.63;22.20;;;;;;;-0.36;79.06;98801.63;6331385;27;20247;-34
2023/02/16 04:42:43;;;;;;;32.40;20.70;;;;;;;-0.55;79.17;98780.78;6329895;27;20293;-34
2023/02/16 04:45:45;;;;;;;33.97;20.37;;;;;;;-0.66;79.22;98758.25;6348295;27;20699;-34
2023/02/16 04:48:47;;;;;;;32.17;20.33;;;;;;;-0.40;79.06;98800.28;6352417;27;20721;-34
2023/02/16 04:51:49;;;;;;;28.67;18.60;;;;;;;-0.42;78.95;98804.84;6351814;27;20692;-34
2023/02/16 04:54:51;;;;;;;25.00;16.03;;;;;;;-0.35;78.78;98813.75;6353352;27;20239;-34
2023/02/16 04:57:53;;;;;;;28.60;18.03;;;;;;;-0.35;78.67;98792.00;6352774;27;20223;-34
2023/02/16 05:00:55;;;;;;;42.73;22.00;;;;;;;-0.54;78.14;98809.44;6336568;27;20214;-34
2023/02/16 05:03:57;;;;;;;35.93;20.80;;;;;;;-0.57;78.46;98793.19;6357925;27;20220;-34
2023/02/16 05:06:59;;;;;;;32.10;19.97;;;;;;;-0.55;78.43;98807.78;6344034;27;20231;-34
2023/02/16 05:10:01;;;;;;;35.57;20.33;;;;;;;-0.62;78.52;98803.28;6348429;27;20231;-34
2023/02/16 05:16:24;;;;;;;30.93;18.87;;;;;;;-0.80;78.33;98767.38;6336165;27;20225;-34
2023/02/16 05:19:26;;;;;;;37.20;20.83;;;;;;;-0.68;78.59;98799.44;6324214;27;20221;-34
2023/02/16 05:22:31;;;;;;;40.50;19.40;;;;;;;-0.72;79.15;98805.09;6324137;27;20245;-34
2023/02/16 05:25:33;;;;;;;36.57;19.87;;;;;;;-1.08;79.15;98747.38;6351940;27;20235;-34
2023/02/16 05:28:35;;;;;;;31.43;19.43;;;;;;;-1.14;79.12;98738.28;6348883;27;20221;-34
2023/02/16 05:31:37;;;;;;;26.57;17.47;;;;;;;-0.73;79.17;98799.03;6325377;28;20237;-34
2023/02/16 05:34:39;;;;;;;28.30;17.80;;;;;;;-0.70;79.13;98801.34;6335609;28;20269;-34
2023/02/16 05:37:41;;;;;;;25.87;16.27;;;;;;;-0.66;79.19;98802.72;6351465;28;20279;-34
2023/02/16 05:40:43;;;;;;;45.23;19.23;;;;;;;-0.69;78.96;98800.41;6341131;28;20221;-34
2023/02/16 05:43:48;;;;;;;38.57;18.20;;;;;;;-0.71;79.09;98804.13;6342999;28;20254;-34
2023/02/16 05:46:51;;;;;;;26.00;16.73;;;;;;;-0.65;79.18;98798.31;6352147;28;20292;-34
2023/02/16 05:49:52;;;;;;;29.13;18.07;;;;;;;-0.64;78.76;98798.19;6323448;28;20225;-34
2023/02/16 05:52:55;;;;;;;26.57;17.33;;;;;;;-0.59;78.92;98808.19;6333022;28;20238;-34
2023/02/16 05:55:57;;;;;;;27.90;16.83;;;;;;;-0.63;78.51;98810.28;6352825;28;20224;-34
2023/02/16 05:58:59;;;;;;;30.17;16.93;;;;;;;-0.68;78.29;98816.94;6351233;28;20228;-34
2023/02/16 06:02:01;;;;;;;35.80;18.77;;;;;;;-0.84;78.67;98810.50;6348396;28;20213;-34
2023/02/16 06:05:03;;;;;;;28.50;17.37;;;;;;;-0.81;78.59;98804.97;6326572;28;20217;-34
2023/02/16 06:08:05;;;;;;;26.90;17.60;;;;;;;-0.94;78.69;98808.84;6328598;28;20217;-34
2023/02/16 06:11:34;;;;;;;37.50;17.57;;;;;;;-1.08;79.13;98803.09;6343313;27;20574;-34
2023/02/16 06:14:29;;;;;;;33.30;17.90;;;;;;;-1.06;79.15;98803.78;6356588;27;20795;-34
2023/02/16 06:17:31;;;;;;;27.40;17.30;;;;;;;-1.01;79.11;98805.16;6346970;27;20236;-34
2023/02/16 06:20:33;;;;;;;28.90;17.53;;;;;;;-1.00;79.36;98805.00;6356522;27;20285;-34
2023/02/16 06:23:35;;;;;;;26.30;16.43;;;;;;;-0.92;79.07;98809.56;6354117;27;20621;-34
2023/02/16 06:26:37;;;;;;;23.53;16.10;;;;;;;-0.82;79.40;98815.59;6330842;27;20236;-34
2023/02/16 06:29:39;;;;;;;28.33;17.60;;;;;;;-0.92;78.22;98791.25;6345032;27;20243;-35
2023/02/16 06:32:41;;;;;;;34.97;17.80;;;;;;;-0.81;78.41;98815.44;6351361;27;20629;-34
2023/02/16 06:35:43;;;;;;;28.10;17.70;;;;;;;-0.74;78.15;98815.69;6356052;27;20224;-34
2023/02/16 06:38:45;;;;;;;25.50;17.10;;;;;;;-0.70;77.90;98814.44;6355034;27;20245;-34
2023/02/16 06:41:47;;;;;;;26.37;16.37;;;;;;;-0.65;77.80;98820.06;6337985;27;20235;-35
2023/02/16 06:44:49;;;;;;;29.17;18.17;;;;;;;-0.64;76.95;98819.13;6330257;28;20726;-34
2023/02/16 06:47:51;;;;;;;24.50;16.23;;;;;;;-0.62;76.89;98826.81;6332849;27;20587;-34
2023/02/16 06:50:53;;;;;;;27.70;17.17;;;;;;;-0.65;76.88;98817.44;6356240;27;20671;-34
2023/02/16 06:53:56;;;;;;;29.43;18.20;;;;;;;-0.71;76.75;98823.25;6355389;27;20228;-34
2023/02/16 06:56:58;;;;;;;30.73;19.07;;;;;;;-0.72;76.77;98826.84;6358147;27;20238;-34
2023/02/16 07:00:00;;;;;;;28.13;17.60;;;;;;;-0.71;77.05;98828.50;6354726;27;20232;-34
2023/02/16 07:03:02;;;;;;;26.10;18.07;;;;;;;-0.90;77.04;98803.19;6356373;27;20260;-34
2023/02/16 07:06:04;;;;;;;26.97;16.70;;;;;;;-0.59;76.77;98834.38;6355153;27;20229;-34
2023/02/16 07:09:06;;;;;;;25.93;16.47;;;;;;;-0.73;76.81;98796.41;6354681;27;20739;-35
2023/02/16 07:12:11;;;;;;;30.47;18.37;;;;;;;-0.71;76.36;98785.81;6352512;27;20461;-34
2023/02/16 07:15:13;;;;;;;27.97;17.77;;;;;;;-0.63;76.00;98784.13;6331742;27;20197;-34
2023/02/16 07:18:15;;;;;;;34.93;18.63;;;;;;;-0.30;76.18;98835.09;6329850;28;20204;-35
2023/02/16 07:21:17;;;;;;;25.80;16.50;;;;;;;-0.32;76.42;98830.97;6348147;27;20278;-34
2023/02/16 07:24:19;;;;;;;37.57;19.03;;;;;;;-0.30;76.74;98834.25;6352479;27;20595;-34
2023/02/16 07:27:22;;;;;;;24.80;16.63;;;;;;;-0.25;77.06;98829.41;6343986;27;20240;-34
2023/02/16 07:30:24;;;;;;;29.70;18.67;;;;;;;-0.13;76.85;98835.31;6343828;27;20232;-34
2023/02/16 07:33:26;;;;;;;27.63;17.20;;;;;;;-0.06;76.15;98837.19;6343183;27;20258;-34
2023/02/16 07:36:28;;;;;;;34.83;18.57;;;;;;;-0.18;76.75;98837.53;6338329;27;20327;-35
2023/02/16 07:39:30;;;;;;;33.10;20.23;;;;;;;-0.24;76.59;98804.91;6352738;27;20714;-34
2023/02/16 07:42:32;;;;;;;37.53;19.70;;;;;;;-0.02;76.47;98825.44;6349187;27;20760;-34
2023/02/16 07:45:37;;;;;;;29.83;18.77;;;;;;;0.02;76.33;98831.22;6335346;27;20269;-35
2023/02/16 07:48:39;;;;;;;27.57;16.80;;;;;;;0.10;76.62;98828.72;6336195;27;20705;-34
2023/02/16 07:51:41;;;;;;;29.67;18.07;;;;;;;0.03;76.74;98822.41;6336099;27;20292;-34
2023/02/16 07:54:43;;;;;;;33.80;18.97;;;;;;;-0.04;76.98;98818.72;6341125;27;20221;-34
2023/02/16 07:57:48;;;;;;;34.73;18.87;;;;;;;0.13;77.31;98822.34;6342332;27;20220;-34
2023/02/16 08:00:50;;;;;;;31.10;17.63;;;;;;;0.20;76.87;98813.75;6353546;27;20767;-35
2023/02/16 08:03:52;;;;;;;30.73;18.40;;;;;;;0.26;76.78;98825.44;6354193;27;20708;-34
2023/02/16 08:06:54;;;;;;;28.50;18.23;;;;;;;0.27;76.52;98819.22;6351437;27;20243;-34
2023/02/16 08:09:56;;;;;;;48.67;19.73;;;;;;;0.34;76.29;98815.03;6328939;28;20233;-34
2023/02/16 08:12:58;;;;;;;35.40;18.27;;;;;;;0.36;76.18;98807.84;6352382;27;20234;-34
2023/02/16 08:16:00;;;;;;;25.80;17.63;;;;;;;0.50;75.76;98822.25;6342380;27;20244;-34
2023/02/16 08:19:03;;;;;;;26.77;17.03;;;;;;;0.62;75.49;98817.59;6329078;27;20300;-34
2023/02/16 08:22:06;;;;;;;30.10;17.43;;;;;;;0.73;75.06;98820.78;6342392;27;20236;-35
2023/02/16 08:25:08;;;;;;;29.63;17.73;;;;;;;0.86;74.94;98822.22;6343966;27;20225;-34
2023/02/16 08:28:13;;;;;;;28.67;17.30;;;;;;;0.93;74.43;98829.31;6334721;27;20240;-35
2023/02/16 08:31:21;;;;;;;25.97;16.87;;;;;;;0.93;74.49;98815.38;6332392;27;20261;-34
2023/02/16 08:34:25;;;;;;;27.23;16.47;;;;;;;0.87;74.27;98803.69;6350694;27;20374;-34
2023/02/16 08:37:27;;;;;;;31.27;18.10;;;;;;;1.20;74.09;98824.94;6325871;28;20407;-34
2023/02/16 08:40:29;;;;;;;24.17;16.37;;;;;;;1.26;73.90;98826.94;6341637;27;20275;-34
2023/02/16 08:43:32;;;;;;;27.30;17.53;;;;;;;1.41;74.09;98837.69;6329198;27;20647;-35
2023/02/16 08:46:39;;;;;;;26.57;17.00;;;;;;;1.24;73.20;98802.66;6343932;27;20237;-35
2023/02/16 08:49:43;;;;;;;29.13;16.93;;;;;;;1.54;73.54;98838.94;6335344;27;20316;-34
2023/02/16 08:52:45;;;;;;;25.87;17.43;;;;;;;1.63;73.12;98831.94;6344920;27;20335;-34
2023/02/16 08:55:55;;;;;;;24.33;16.30;;;;;;;1.73;72.83;98844.94;6352283;27;20728;-34
2023/02/16 08:58:57;;;;;;;30.67;17.33;;;;;;;1.84;72.33;98846.47;6348162;27;20231;-34
2023/02/16 09:02:00;;;;;;;26.03;16.07;;;;;;;1.90;72.57;98848.47;6330970;27;20245;-34
2023/02/16 09:05:02;;;;;;;30.40;18.30;;;;;;;1.92;72.10;98844.72;6347001;27;20703;-34
2023/02/16 09:08:04;;;;;;;29.60;18.63;;;;;;;1.85;71.87;98845.47;6301372;28;20322;-34
2023/02/16 09:11:10;;;;;;;32.70;18.87;;;;;;;1.86;72.18;98841.88;6344970;27;20265;-34
2023/02/16 09:14:12;;;;;;;30.70;19.17;;;;;;;1.90;72.69;98841.41;6344348;27;20843;-34
2023/02/16 09:17:15;;;;;;;33.77;19.80;;;;;;;2.02;72.39;98844.56;6328862;27;20709;-34
2023/02/16 09:20:19;;;;;;;33.00;20.10;;;;;;;2.11;72.48;98848.84;6338167;27;20711;-34
2023/02/16 09:23:21;;;;;;;32.27;21.13;;;;;;;2.11;72.18;98846.22;6333400;28;20238;-34
2023/02/16 09:26:24;;;;;;;31.63;20.03;;;;;;;2.18;72.12;98841.19;6351408;27;20214;-35
2023/02/16 09:29:26;;;;;;;32.60;17.57;;;;;;;2.22;71.93;98835.44;6346053;27;20708;-34
2023/02/16 09:32:29;;;;;;;37.83;21.93;;;;;;;2.33;71.80;98837.78;6351263;28;20226;-34
2023/02/16 09:35:31;;;;;;;37.17;21.83;;;;;;;2.33;71.77;98829.88;6325358;28;20723;-34
2023/02/16 09:38:33;;;;;;;34.93;21.73;;;;;;;2.50;71.82;98825.47;6329935;28;20231;-34
2023/02/16 09:41:54;;;;;;;33.17;19.63;;;;;;;2.69;71.35;98826.16;6349834;28;20236;-34
2023/02/16 09:45:24;;;;;;;35.30;21.07;;;;;;;2.81;71.08;98817.78;6354657;27;20266;-34
2023/02/16 09:48:41;;;;;;;32.57;20.60;;;;;;;2.95;70.97;98824.19;6354648;27;20636;-34
2023/02/16 09:51:43;;;;;;;36.07;20.97;;;;;;;3.19;70.47;98815.44;6343178;27;20696;-34
2023/02/16 09:54:53;;;;;;;37.43;22.63;;;;;;;3.43;69.79;98814.59;6344581;27;20691;-34
2023/02/16 09:58:20;;;;;;;31.03;19.67;;;;;;;3.74;69.51;98821.75;6356233;27;20602;-34
2023/02/16 10:01:38;;;;;;;35.17;21.37;;;;;;;4.04;68.54;98820.13;6350090;27;20225;-34
2023/02/16 10:04:52;;;;;;;32.87;19.70;;;;;;;4.70;66.83;98821.41;6333875;28;20607;-34
2023/02/16 10:07:58;;;;;;;32.90;20.50;;;;;;;5.57;64.83;98815.72;6332756;27;20353;-35
2023/02/16 10:11:36;;;;;;;36.77;22.83;;;;;;;6.62;61.77;98802.16;6334335;27;20235;-34
2023/02/16 10:14:40;;;;;;;37.10;22.37;;;;;;;7.21;58.58;98809.78;6356298;27;20243;-34
2023/02/16 10:17:48;;;;;;;34.97;23.50;;;;;;;7.00;58.29;98770.91;6334095;27;20240;-34
2023/02/16 10:20:55;;;;;;;38.93;24.80;;;;;;;7.13;58.13;98805.44;6356004;27;20237;-34
2023/02/16 10:24:01;;;;;;;36.07;24.07;;;;;;;7.68;57.68;98805.59;6356345;27;20701;-35
2023/02/16 10:27:10;;;;;;;38.13;25.17;;;;;;;8.05;55.77;98791.13;6334069;27;20236;-35
2023/02/16 10:30:21;;;;;;;40.90;25.13;;;;;;;8.21;55.47;98793.41;6336187;27;20698;-35
2023/02/16 10:33:27;;;;;;;43.10;26.23;;;;;;;8.60;54.41;98793.75;6346816;27;20234;-35
2023/02/16 10:36:40;;;;;;;37.57;25.30;;;;;;;8.69;54.03;98795.22;6356022;27;20227;-35
2023/02/16 10:40:29;;;;;;;42.87;27.63;;;;;;;8.62;54.58;98786.41;6351782;27;20830;-35
2023/02/16 10:44:00;;;;;;;42.17;26.47;;;;;;;8.91;53.50;98788.69;6278019;28;20278;-35
2023/02/16 10:47:05;;;;;;;40.60;26.60;;;;;;;9.05;53.03;98789.50;6350308;27;20237;-35
2023/02/16 10:50:20;;;;;;;42.13;27.53;;;;;;;9.11;53.31;98790.53;6336462;27;20606;-35
2023/02/16 10:53:45;;;;;;;49.40;29.73;;;;;;;8.84;53.75;98779.09;6355446;27;20239;-35
2023/02/16 10:56:58;;;;;;;43.83;29.30;;;;;;;8.66;53.98;98772.50;6354593;27;20232;-35
2023/02/16 11:00:12;;;;;;;43.40;27.67;;;;;;;8.72;54.54;98770.91;6332538;27;20306;-35
2023/02/16 11:03:14;;;;;;;43.40;28.10;;;;;;;8.29;53.99;98715.44;6336106;27;20209;-35
2023/02/16 11:06:20;;;;;;;38.50;25.60;;;;;;;8.53;54.00;98756.56;6336778;27;20357;-34
2023/02/16 11:09:27;;;;;;;42.73;28.07;;;;;;;8.15;55.23;98770.31;6354330;27;20684;-35
2023/02/16 11:12:32;;;;;;;41.77;28.90;;;;;;;8.05;55.85;98746.00;6336243;27;20328;-35
2023/02/16 11:15:38;;;;;;;40.20;26.43;;;;;;;7.75;56.30;98711.00;6348023;27;20228;-35
2023/02/16 11:18:44;;;;;;;40.37;25.93;;;;;;;7.96;56.24;98744.53;6330731;27;20278;-35
2023/02/16 11:21:49;;;;;;;40.27;26.17;;;;;;;8.13;56.04;98740.53;6347391;27;20549;-35
2023/02/16 11:24:51;;;;;;;40.73;26.60;;;;;;;8.09;56.04;98730.50;6354892;27;20240;-35
2023/02/16 11:27:56;;;;;;;34.87;23.87;;;;;;;8.25;56.04;98735.44;6343029;27;20698;-35
2023/02/16 11:31:03;;;;;;;41.57;26.63;;;;;;;8.24;56.03;98731.97;6342282;27;20228;-35
2023/02/16 11:34:30;;;;;;;36.07;24.37;;;;;;;8.36;56.07;98732.22;6349894;27;20224;-35
2023/02/16 11:37:33;;;;;;;37.27;25.17;;;;;;;8.29;55.99;98710.13;6334877;27;20227;-35
2023/02/16 11:40:35;;;;;;;36.43;23.77;;;;;;;8.45;56.46;98712.44;6343021;27;20233;-35
2023/02/16 11:43:41;;;;;;;36.30;23.30;;;;;;;8.61;55.27;98713.03;6354688;27;20711;-35
2023/02/16 11:46:43;;;;;;;33.80;23.50;;;;;;;8.82;54.78;98696.09;6355382;27;20831;-35
2023/02/16 11:49:45;;;;;;;33.67;23.07;;;;;;;8.93;54.53;98703.47;6353681;27;20233;-36
2023/02/16 11:52:49;;;;;;;35.77;22.60;;;;;;;8.84;54.27;98697.53;6338694;27;20763;-35
2023/02/16 11:56:11;;;;;;;30.50;21.43;;;;;;;8.92;53.93;98686.69;6343094;27;20233;-35
2023/02/16 11:59:20;;;;;;;27.70;19.60;;;;;;;9.09;53.68;98686.25;6353306;27;20228;-35
2023/02/16 12:02:25;;;;;;;32.33;22.33;;;;;;;9.28;53.06;98688.06;6349392;27;20354;-35
2023/02/16 12:05:53;;;;;;;29.47;21.00;;;;;;;9.51;52.42;98671.63;6317651;27;20622;-35
2023/02/16 12:09:13;;;;;;;30.73;20.47;;;;;;;9.65;51.94;98667.06;6340643;27;20717;-35
2023/02/16 12:12:30;;;;;;;27.17;19.33;;;;;;;9.67;51.80;98662.34;6335128;27;20222;-35
2023/02/16 12:15:41;;;;;;;29.30;20.93;;;;;;;9.69;52.32;98662.94;6346278;27;20249;-35
2023/02/16 12:18:52;;;;;;;32.10;20.57;;;;;;;9.76;52.41;98658.44;6331811;27;20228;-35
2023/02/16 12:22:26;;;;;;;32.83;20.83;;;;;;;9.65;52.54;98635.13;6350024;27;20689;-35
2023/02/16 12:26:01;;;;;;;30.27;20.70;;;;;;;9.87;52.18;98646.28;6333309;27;20254;-35
2023/02/16 12:29:43;;;;;;;29.33;19.97;;;;;;;9.86;51.30;98639.34;6331406;27;20228;-35
2023/02/16 12:32:46;;;;;;;31.73;21.87;;;;;;;9.72;51.69;98638.59;6351354;27;20734;-35
2023/02/16 12:36:11;;;;;;;30.13;20.70;;;;;;;9.49;51.13;98628.44;6350739;27;20225;-35
2023/02/16 12:39:22;;;;;;;34.33;22.33;;;;;;;9.41;50.78;98634.00;6353493;27;20233;-35
2023/02/16 12:42:42;;;;;;;32.27;22.50;;;;;;;9.40;50.38;98619.88;6302685;28;20218;-35
2023/02/16 12:45:46;;;;;;;35.17;23.67;;;;;;;9.24;51.36;98625.69;6301084;28;20234;-36
2023/02/16 12:48:55;;;;;;;33.87;23.40;;;;;;;9.06;51.46;98607.72;6349672;27;20232;-35
2023/02/16 12:52:07;;;;;;;33.80;23.80;;;;;;;8.92;51.75;98627.41;6353022;27;20226;-35
2023/02/16 12:55:29;;;;;;;36.23;24.33;;;;;;;8.92;51.64;98616.78;6352043;27;20581;-35
2023/02/16 12:58:45;;;;;;;33.93;23.07;;;;;;;8.83;52.24;98624.16;6349612;27;20240;-35
2023/02/16 13:01:51;;;;;;;34.70;23.10;;;;;;;8.43;52.95;98623.38;6328112;27;20229;-35
2023/02/16 13:05:09;;;;;;;38.00;23.90;;;;;;;8.44;52.90;98623.16;6329377;28;20221;-35
2023/02/16 13:08:38;;;;;;;36.40;24.73;;;;;;;8.30;53.96;98613.53;6339668;27;20230;-35
2023/02/16 13:11:48;;;;;;;33.77;23.40;;;;;;;8.35;53.72;98594.34;6315602;27;20304;-35
2023/02/16 13:15:19;;;;;;;37.60;24.07;;;;;;;8.38;53.14;98617.88;6351416;27;20703;-35
2023/02/16 13:18:27;;;;;;;38.70;22.50;;;;;;;8.30;53.76;98626.81;6328502;27;20256;-35
2023/02/16 13:21:53;;;;;;;32.27;23.03;;;;;;;8.23;54.10;98613.56;6334522;27;20308;-35
2023/02/16 13:25:18;;;;;;;35.97;23.40;;;;;;;8.21;54.10;98615.56;6351903;27;20569;-35
2023/02/16 13:28:36;;;;;;;39.10;23.87;;;;;;;8.33;54.18;98605.19;6352564;27;20236;-35
2023/02/16 13:32:07;;;;;;;35.13;23.03;;;;;;;8.52;53.39;98603.53;6314127;28;20228;-35
2023/02/16 13:35:24;;;;;;;32.37;22.00;;;;;;;8.62;53.90;98605.78;6328625;28;20205;-35
2023/02/16 13:38:51;;;;;;;29.23;19.73;;;;;;;8.76;53.13;98597.59;6332398;28;20224;-35
2023/02/16 13:42:05;;;;;;;28.30;19.23;;;;;;;8.86;53.07;98596.34;6336130;28;20953;-35
2023/02/16 13:45:16;;;;;;;34.77;22.70;;;;;;;8.59;52.53;98551.25;6351641;28;20401;-35
2023/02/16 13:48:20;;;;;;;35.13;23.00;;;;;;;8.56;53.03;98588.84;6326275;28;20382;-35
2023/02/16 13:51:26;;;;;;;19.83;13.93;;;;;;;8.66;50.37;98586.56;6351984;28;20228;-35
2023/02/16 13:54:34;;;;;;;32.27;19.83;;;;;;;8.70;51.88;98586.97;6328796;28;20221;-35
2023/02/16 13:57:46;;;;;;;27.53;19.90;;;;;;;8.76;52.16;98584.31;6348700;28;20595;-35
2023/02/16 14:00:52;;;;;;;36.10;22.13;;;;;;;8.69;52.94;98586.16;6350655;28;20235;-34
2023/02/16 14:03:54;;;;;;;27.53;19.30;;;;;;;8.58;53.58;98580.69;6351463;28;20224;-35
2023/02/16 14:07:08;;;;;;;25.73;16.37;;;;;;;8.79;50.80;98577.78;6352973;28;20232;-35
2023/02/16 14:10:13;;;;;;;14.90;8.70;;;;;;;9.59;44.76;98580.94;6323803;28;20265;-35
2023/02/16 14:13:15;;;;;;;13.77;8.33;;;;;;;9.96;44.17;98584.59;6298910;28;20735;-35
2023/02/16 14:16:19;;;;;;;14.60;8.47;;;;;;;10.30;44.28;98590.53;6335643;28;20266;-35
2023/02/16 14:19:25;;;;;;;12.00;7.73;;;;;;;10.56;41.38;98589.47;6351294;28;20237;-36
2023/02/16 14:22:33;;;;;;;11.83;8.10;;;;;;;10.82;38.21;98581.22;6351380;28;20829;-35
2023/02/16 14:25:37;;;;;;;13.13;6.83;;;;;;;11.07;39.44;98581.16;6350639;28;20242;-35
2023/02/16 14:28:54;;;;;;;12.87;8.00;;;;;;;11.09;37.91;98579.09;6333117;28;20231;-35
2023/02/16 14:32:09;;;;;;;13.87;8.60;;;;;;;11.11;37.86;98592.19;6348888;27;20235;-35
2023/02/16 14:35:38;;;;;;;13.70;8.33;;;;;;;10.93;38.61;98565.53;6354723;27;20228;-35
2023/02/16 14:38:40;;;;;;;12.07;7.57;;;;;;;11.15;37.29;98612.06;6352219;27;20240;-35
2023/02/16 14:41:42;;;;;;;11.10;7.20;;;;;;;11.18;37.72;98611.63;6352289;27;20232;-35
2023/02/16 14:45:04;;;;;;;11.50;7.60;;;;;;;10.85;37.73;98572.78;6335445;27;20783;-35
2023/02/16 14:48:29;;;;;;;13.23;8.07;;;;;;;10.84;36.20;98573.84;6342193;27;20239;-35
2023/02/16 14:51:43;;;;;;;14.87;8.33;;;;;;;11.10;36.84;98612.72;6348211;27;20235;-35
2023/02/16 14:55:16;;;;;;;12.60;7.80;;;;;;;11.05;37.56;98601.09;6340391;27;20725;-35
2023/02/16 14:58:30;;;;;;;13.87;8.63;;;;;;;10.99;37.83;98600.13;6350631;27;20231;-35
2023/02/16 15:01:40;;;;;;;13.70;8.50;;;;;;;10.89;37.00;98599.81;6347426;27;20228;-35
2023/02/16 15:04:42;;;;;;;16.33;8.77;;;;;;;10.82;36.59;98605.19;6337966;27;20236;-35
2023/02/16 15:07:49;;;;;;;11.60;7.60;;;;;;;10.71;37.33;98576.63;6353387;27;20237;-35
2023/02/16 15:10:57;;;;;;;11.33;7.00;;;;;;;10.85;37.10;98596.78;6349398;27;20579;-35